Time;durP1;ratioP1;P1;durP2;ratioP2;P2;SDS_P1;SDS_P2;PMS_P1;PMS_P2;Temp;Humidity;BMP_temperature;BMP_pressure;BME280_temperature;BME280_humidity;BME280_pressure;Samples;Min_cycle;Max_cycle;Signal;HPM_P1;HPM_P2
2023/04/18 00:01:33;;;;;;;;;;;;;;;;;;;;;
2023/04/18 00:07:40;;;;;;;;;;;6.10;61.40;;;;;;4130469;28;19940;-86
2023/04/18 00:10:21;;;;;;;;;;;6.20;62.60;;;;;;4083463;29;19924;-86
2023/04/18 00:12:48;;;;;;;;;;;6.20;62.40;;;;;;4084294;29;20013;-86
2023/04/18 00:15:11;;;;;;;;;;;;;;;;;;;;;
2023/04/18 00:20:38;;;;;;;;;;;6.10;63.50;;;;;;4080092;28;19938;-88
2023/04/18 00:25:21;;;;;;;;;;;6.10;62.80;;;;;;4197523;23;19921;-85
2023/04/18 00:28:02;;;;;;;;;;;6.10;62.80;;;;;;4125087;28;19918;-86
2023/04/18 00:30:21;;;;;;;;;;;6.10;63.90;;;;;;4141166;28;19916;-85
2023/04/18 00:32:45;;;;;;;;;;;6.10;64.00;;;;;;4145756;28;19924;-85
2023/04/18 00:35:08;;;;;;;;;;;6.10;64.30;;;;;;4129906;28;20060;-85
2023/04/18 00:37:32;;;;;;;;;;;6.00;65.00;;;;;;4128419;28;19914;-87
2023/04/18 00:42:49;;;;;;;;;;;6.00;66.00;;;;;;4144841;28;20092;-85
2023/04/18 00:45:18;;;;;;;;;;;6.00;66.70;;;;;;4142121;23;19929;-86
2023/04/18 00:47:49;;;;;;;;;;;6.00;66.70;;;;;;4114865;28;19935;-87
2023/04/18 00:50:19;;;;;;;;;;;6.00;67.40;;;;;;4121785;28;19914;-87
2023/04/18 00:53:00;;;;;;;;;;;6.00;68.00;;;;;;4132350;28;19953;-85
2023/04/18 00:55:57;;;;;;;;;;;6.10;68.10;;;;;;4081324;28;20013;-86
2023/04/18 00:58:15;;;;;;;;;;;6.00;68.30;;;;;;4077321;29;19914;-85
2023/04/18 01:00:42;;;;;;;;;;;6.00;68.50;;;;;;4074092;29;19946;-85
2023/04/18 01:02:54;;;;;;;;;;;6.10;67.60;;;;;;4095705;28;19914;-86
2023/04/18 01:05:19;;;;;;;;;;;6.00;67.90;;;;;;4078651;28;20425;-85
2023/04/18 01:07:32;;;;;;;;;;;6.00;68.30;;;;;;4084787;29;20384;-86
2023/04/18 01:09:59;;;;;;;;;;;6.00;69.00;;;;;;4092277;28;19914;-86
2023/04/18 01:17:33;;;;;;;;;;;6.00;69.80;;;;;;4096269;28;19918;-85
2023/04/18 01:20:05;;;;;;;;;;;6.00;69.90;;;;;;4090613;28;19918;-85
2023/04/18 01:22:35;;;;;;;;;;;6.10;70.00;;;;;;4057816;29;19922;-85
2023/04/18 01:24:36;;;;;;;;;;;6.00;69.80;;;;;;4057075;28;19910;-85
2023/04/18 01:26:37;;;;;;;;;;;6.00;70.10;;;;;;4056899;29;20059;-87
2023/04/18 01:28:54;;;;;;;;;;;6.00;70.10;;;;;;4095407;28;19915;-86
2023/04/18 01:31:00;;;;;;;;;;;6.00;69.10;;;;;;4094573;28;20013;-85
2023/04/18 01:33:21;;;;;;;;;;;6.00;68.70;;;;;;4083719;23;19935;-86
2023/04/18 01:35:27;;;;;;;;;;;6.00;68.90;;;;;;4092105;28;19927;-86
2023/04/18 01:38:04;;;;;;;;;;;6.00;69.30;;;;;;4109198;28;19914;-86
2023/04/18 01:40:44;;;;;;;;;;;5.90;68.80;;;;;;4066217;29;19911;-86
2023/04/18 01:45:56;;;;;;;;;;;5.90;69.00;;;;;;4019929;29;19916;-86
2023/04/18 01:48:32;;;;;;;;;;;5.90;69.20;;;;;;4019560;29;20402;-86
2023/04/18 01:50:46;;;;;;;;;;;5.90;69.40;;;;;;4013422;29;19920;-85
2023/04/18 01:53:07;;;;;;;;;;;5.90;69.90;;;;;;4007224;29;19923;-86
2023/04/18 01:58:25;;;;;;;;;;;5.80;69.80;;;;;;4022092;29;19916;-88
2023/04/18 02:01:07;;;;;;;;;;;5.80;69.50;;;;;;4016363;29;19929;-87
2023/04/18 02:03:18;;;;;;;;;;;5.80;69.40;;;;;;4011221;29;19987;-87
2023/04/18 02:05:39;;;;;;;;;;;5.80;69.20;;;;;;4009487;29;20475;-85
2023/04/18 02:08:29;;;;;;;;;;;5.90;68.90;;;;;;4019680;29;19958;-88
2023/04/18 02:16:37;;;;;;;;;;;5.70;68.30;;;;;;4020101;29;20379;-86
2023/04/18 02:18:51;;;;;;;;;;;5.70;68.30;;;;;;4049308;29;19916;-87
2023/04/18 02:21:47;;;;;;;;;;;5.60;67.90;;;;;;4083207;29;20021;-87
2023/04/18 02:28:25;;;;;;;;;;;5.60;68.00;;;;;;3979580;26;20244;-87
2023/04/18 02:31:14;;;;;;;;;;;5.60;68.20;;;;;;4114388;28;19924;-85
2023/04/18 02:34:09;;;;;;;;;;;5.60;68.70;;;;;;4125899;28;19960;-87
2023/04/18 02:36:41;;;;;;;;;;;5.50;69.80;;;;;;4108600;28;20315;-85
2023/04/18 02:42:39;;;;;;;;;;;5.50;70.10;;;;;;4070045;29;20015;-84
2023/04/18 02:45:20;;;;;;;;;;;5.40;69.60;;;;;;4124872;23;20021;-85
2023/04/18 02:47:44;;;;;;;;;;;5.50;69.60;;;;;;4112151;28;19911;-84
2023/04/18 02:50:19;;;;;;;;;;;5.50;69.00;;;;;;4111414;28;19917;-84
2023/04/18 02:52:43;;;;;;;;;;;5.40;69.20;;;;;;4098094;28;19925;-84
2023/04/18 02:55:11;;;;;;;;;;;5.40;69.40;;;;;;4098349;28;19910;-86
2023/04/18 02:57:38;;;;;;;;;;;5.30;69.20;;;;;;4100695;28;19917;-84
2023/04/18 03:00:01;;;;;;;;;;;5.30;69.90;;;;;;4095456;28;19993;-84
2023/04/18 03:02:43;;;;;;;;;;;5.30;69.70;;;;;;4108329;28;19945;-88
2023/04/18 03:05:10;;;;;;;;;;;5.40;69.30;;;;;;4101447;28;20344;-87
2023/04/18 03:07:30;;;;;;;;;;;5.40;69.40;;;;;;4106808;28;19957;-89
2023/04/18 03:09:31;;;;;;;;;;;5.30;69.60;;;;;;4105774;28;20408;-86
2023/04/18 03:11:41;;;;;;;;;;;5.40;70.30;;;;;;4111110;28;19922;-85
2023/04/18 03:14:14;;;;;;;;;;;5.30;70.10;;;;;;4077980;29;19978;-86
2023/04/18 03:16:37;;;;;;;;;;;5.30;70.40;;;;;;4092359;28;19921;-84
2023/04/18 03:18:53;;;;;;;;;;;;;;;;;;;;;
2023/04/18 03:20:59;;;;;;;;;;;5.30;71.00;;;;;;4095315;28;19910;-84
2023/04/18 03:23:00;;;;;;;;;;;5.30;71.30;;;;;;4111026;28;19941;-85
2023/04/18 03:25:21;;;;;;;;;;;5.30;71.40;;;;;;4097871;28;19915;-84
2023/04/18 03:28:25;;;;;;;;;;;5.20;71.50;;;;;;4111422;28;20033;-85
2023/04/18 03:30:41;;;;;;;;;;;5.20;71.60;;;;;;4076876;29;19958;-86
2023/04/18 03:35:36;;;;;;;;;;;5.10;72.40;;;;;;4046539;29;20394;-86
2023/04/18 03:45:02;;;;;;;;;;;5.20;73.00;;;;;;4160601;23;21247;-85
2023/04/18 03:47:17;;;;;;;;;;;5.20;73.10;;;;;;4143803;28;19913;-86
2023/04/18 03:49:25;;;;;;;;;;;5.20;73.20;;;;;;4129245;28;19921;-84
2023/04/18 03:51:40;;;;;;;;;;;5.30;73.60;;;;;;4128901;28;20399;-85
2023/04/18 03:54:04;;;;;;;;;;;5.00;73.20;;;;;;4135060;28;20395;-84
2023/04/18 03:56:11;;;;;;;;;;;5.20;73.00;;;;;;4136156;28;19932;-84
2023/04/18 03:58:35;;;;;;;;;;;5.20;73.10;;;;;;4125267;28;19910;-84
2023/04/18 04:01:16;;;;;;;;;;;;;;;;;;;;;
2023/04/18 04:03:17;;;;;;;;;;;5.20;72.90;;;;;;4098394;28;19906;-83
2023/04/18 04:05:26;;;;;;;;;;;5.20;72.70;;;;;;4096863;28;19918;-84
2023/04/18 04:07:38;;;;;;;;;;;5.20;72.60;;;;;;4092112;28;20151;-84
2023/04/18 04:09:50;;;;;;;;;;;5.20;72.50;;;;;;4100417;28;19917;-85
2023/04/18 04:12:20;;;;;;;;;;;5.20;72.50;;;;;;4084584;29;20031;-84
2023/04/18 04:14:49;;;;;;;;;;;5.10;73.10;;;;;;4102492;28;19921;-83
2023/04/18 04:19:53;;;;;;;;;;;5.10;73.40;;;;;;4083247;29;20475;-84
2023/04/18 04:22:20;;;;;;;;;;;5.10;73.20;;;;;;4084618;29;19910;-84
2023/04/18 04:24:32;;;;;;;;;;;5.20;73.50;;;;;;4079360;29;19911;-83
2023/04/18 04:27:00;;;;;;;;;;;5.10;73.80;;;;;;4083811;29;19914;-85
2023/04/18 04:29:12;;;;;;;;;;;5.10;73.50;;;;;;4091224;29;20284;-83
2023/04/18 04:31:40;;;;;;;;;;;;;;;;;;;;;
2023/04/18 04:34:05;;;;;;;;;;;5.20;73.60;;;;;;4110894;28;19910;-84
2023/04/18 04:36:24;;;;;;;;;;;5.10;73.70;;;;;;4065707;29;19921;-84
2023/04/18 04:38:45;;;;;;;;;;;5.10;73.70;;;;;;4081508;29;20014;-83
2023/04/18 04:41:12;;;;;;;;;;;5.10;74.10;;;;;;4109027;28;20433;-83
2023/04/18 04:43:57;;;;;;;;;;;5.10;74.60;;;;;;4114193;28;19944;-85
2023/04/18 04:49:10;;;;;;;;;;;5.10;75.10;;;;;;4125728;28;19917;-84
2023/04/18 04:51:29;;;;;;;;;;;;;;;;;;;;;
2023/04/18 04:53:56;;;;;;;;;;;5.10;74.70;;;;;;4125187;28;19917;-85
2023/04/18 04:59:01;;;;;;;;;;;;;;;;;;;;;
2023/04/18 05:04:21;;;;;;;;;;;5.30;74.30;;;;;;4137905;28;19916;-84
2023/04/18 05:06:40;;;;;;;;;;;5.30;74.10;;;;;;4118035;28;19910;-86
2023/04/18 05:08:59;;;;;;;;;;;5.40;74.30;;;;;;4130360;28;19984;-85
2023/04/18 05:11:34;;;;;;;;;;;5.40;74.10;;;;;;4122229;28;19924;-86
2023/04/18 05:14:12;;;;;;;;;;;5.40;73.00;;;;;;4113759;28;19915;-84
2023/04/18 05:16:13;;;;;;;;;;;5.50;72.90;;;;;;4113218;28;19945;-84
2023/04/18 05:18:17;;;;;;;;;;;5.60;73.10;;;;;;4115828;28;19981;-85
2023/04/18 05:23:24;;;;;;;;;;;5.60;71.90;;;;;;4112186;28;20012;-86
2023/04/18 05:25:49;;;;;;;;;;;5.60;72.00;;;;;;4103729;28;19918;-85
2023/04/18 05:28:08;;;;;;;;;;;5.70;71.40;;;;;;4115754;28;19913;-85
2023/04/18 05:30:20;;;;;;;;;;;5.70;72.10;;;;;;4103139;28;19993;-83
2023/04/18 05:32:47;;;;;;;;;;;5.70;72.00;;;;;;4117951;28;19960;-84
2023/04/18 05:35:08;;;;;;;;;;;5.90;71.40;;;;;;4115859;28;19930;-86
2023/04/18 05:37:43;;;;;;;;;;;6.00;72.10;;;;;;4118561;28;19925;-85
2023/04/18 05:40:14;;;;;;;;;;;6.00;71.50;;;;;;4113695;28;19924;-85
2023/04/18 05:43:09;;;;;;;;;;;6.00;71.20;;;;;;4116345;28;20339;-87
2023/04/18 05:48:46;;;;;;;;;;;;;;;;;;;;;
2023/04/18 05:51:00;;;;;;;;;;;6.20;70.70;;;;;;4116472;28;19922;-85
2023/04/18 05:53:08;;;;;;;;;;;6.30;70.10;;;;;;4126870;28;19905;-87
2023/04/18 05:55:09;;;;;;;;;;;6.40;69.60;;;;;;4137953;28;19968;-87
2023/04/18 05:57:12;;;;;;;;;;;6.50;68.00;;;;;;4122063;28;19921;-85
2023/04/18 05:59:22;;;;;;;;;;;6.40;66.40;;;;;;4138916;28;19981;-86
2023/04/18 06:01:22;;;;;;;;;;;6.50;65.80;;;;;;4100505;28;19907;-85
2023/04/18 06:05:52;;;;;;;;;;;6.50;64.30;;;;;;4138513;28;19906;-85
2023/04/18 06:08:14;;;;;;;;;;;6.60;64.50;;;;;;4137267;28;19929;-86
2023/04/18 06:10:46;;;;;;;;;;;6.60;64.40;;;;;;4102258;28;19921;-85
2023/04/18 06:13:02;;;;;;;;;;;6.60;64.40;;;;;;4107096;28;19910;-86
2023/04/18 06:15:37;;;;;;;;;;;6.60;64.20;;;;;;4100128;28;20309;-86
2023/04/18 06:21:43;;;;;;;;;;;6.70;63.70;;;;;;4131153;28;20081;-86
2023/04/18 06:24:22;;;;;;;;;;;6.70;63.20;;;;;;4127409;28;19913;-86
2023/04/18 06:27:11;;;;;;;;;;;;;;;;;;;;;
2023/04/18 06:29:34;;;;;;;;;;;;;;;;;;;;;
2023/04/18 06:32:06;;;;;;;;;;;6.80;63.20;;;;;;4130953;28;20455;-84
2023/04/18 06:34:51;;;;;;;;;;;;;;;;;;;;;
2023/04/18 06:37:20;;;;;;;;;;;6.90;62.40;;;;;;4082840;28;19915;-86
2023/04/18 06:39:43;;;;;;;;;;;7.00;62.50;;;;;;4121637;28;19916;-84
2023/04/18 06:42:10;;;;;;;;;;;7.00;62.80;;;;;;4131336;28;19969;-86
2023/04/18 06:46:48;;;;;;;;;;;7.10;62.20;;;;;;4089589;29;19911;-87
2023/04/18 06:49:09;;;;;;;;;;;7.10;61.90;;;;;;4076988;29;20360;-86
2023/04/18 06:55:05;;;;;;;;;;;7.30;62.10;;;;;;4096240;28;19998;-89
2023/04/18 07:00:23;;;;;;;;;;;7.40;61.30;;;;;;4054733;29;20393;-86
2023/04/18 07:02:50;;;;;;;;;;;7.40;60.70;;;;;;4053186;29;19964;-87
2023/04/18 07:05:51;;;;;;;;;;;7.50;60.70;;;;;;4022151;29;19916;-85
2023/04/18 07:08:39;;;;;;;;;;;7.60;60.70;;;;;;4050371;29;20433;-88
2023/04/18 07:11:22;;;;;;;;;;;;;;;;;;;;;
2023/04/18 07:13:58;;;;;;;;;;;7.70;60.50;;;;;;4055977;29;20439;-86
2023/04/18 07:16:25;;;;;;;;;;;7.80;60.20;;;;;;4055495;29;20358;-85
2023/04/18 07:18:50;;;;;;;;;;;7.80;59.90;;;;;;4041208;29;19963;-86
2023/04/18 07:21:42;;;;;;;;;;;7.90;59.60;;;;;;4051453;29;20512;-85
2023/04/18 07:24:06;;;;;;;;;;;8.00;59.80;;;;;;4072681;29;20432;-86
2023/04/18 07:26:42;;;;;;;;;;;;;;;;;;;;;
2023/04/18 07:29:03;;;;;;;;;;;8.20;59.50;;;;;;4082161;29;19911;-87
2023/04/18 07:34:12;;;;;;;;;;;8.30;58.50;;;;;;4080307;29;20012;-86
2023/04/18 07:36:45;;;;;;;;;;;8.30;58.40;;;;;;4094427;28;20325;-86
2023/04/18 07:39:16;;;;;;;;;;;8.50;58.50;;;;;;4130627;28;19996;-86
2023/04/18 07:41:58;;;;;;;;;;;8.50;58.60;;;;;;4117489;28;19910;-85
2023/04/18 07:47:43;;;;;;;;;;;8.60;57.70;;;;;;4114563;28;20436;-85
2023/04/18 07:50:27;;;;;;;;;;;8.80;57.80;;;;;;4118106;28;19957;-85
2023/04/18 07:52:36;;;;;;;;;;;8.90;57.00;;;;;;4035973;29;20010;-87
2023/04/18 07:54:37;;;;;;;;;;;8.90;56.00;;;;;;4020841;29;19908;-87
2023/04/18 07:56:45;;;;;;;;;;;9.00;55.30;;;;;;4052796;29;19907;-86
2023/04/18 07:59:07;;;;;;;;;;;9.00;54.90;;;;;;4021562;29;20007;-86
2023/04/18 08:01:34;;;;;;;;;;;9.10;55.40;;;;;;4057020;29;19916;-86
2023/04/18 08:06:22;;;;;;;;;;;9.30;55.10;;;;;;4028002;29;20003;-86
2023/04/18 08:08:46;;;;;;;;;;;9.30;54.70;;;;;;4005446;29;20325;-87
2023/04/18 08:10:55;;;;;;;;;;;9.40;53.40;;;;;;4009181;29;19919;-87
2023/04/18 08:13:46;;;;;;;;;;;9.40;52.60;;;;;;4012393;29;19915;-85
2023/04/18 08:16:18;;;;;;;;;;;9.50;51.80;;;;;;4015269;29;19924;-86
2023/04/18 08:24:43;;;;;;;;;;;9.80;50.60;;;;;;4046853;29;20415;-88
2023/04/18 08:27:45;;;;;;;;;;;9.80;47.90;;;;;;4064239;29;19935;-87
2023/04/18 08:30:27;;;;;;;;;;;9.90;48.80;;;;;;4046971;29;19960;-89
2023/04/18 08:33:31;;;;;;;;;;;10.00;47.60;;;;;;4011748;29;19924;-87
2023/04/18 08:35:58;;;;;;;;;;;10.00;47.80;;;;;;4045419;29;19915;-88
2023/04/18 08:38:22;;;;;;;;;;;10.00;46.40;;;;;;4047427;29;20326;-86
2023/04/18 08:41:10;;;;;;;;;;;10.10;47.10;;;;;;4034987;29;20394;-86
2023/04/18 08:43:46;;;;;;;;;;;10.10;47.40;;;;;;4082676;28;20522;-88
2023/04/18 08:46:35;;;;;;;;;;;;;;;;;;;;;
2023/04/18 08:49:19;;;;;;;;;;;;;;;;;;;;;
2023/04/18 08:55:02;;;;;;;;;;;10.20;47.10;;;;;;4122877;28;20368;-86
2023/04/18 08:57:40;;;;;;;;;;;10.20;46.50;;;;;;4130603;28;20336;-86
2023/04/18 09:00:31;;;;;;;;;;;;;;;;;;;;;
2023/04/18 09:03:11;;;;;;;;;;;10.20;46.50;;;;;;4129259;28;19909;-86
2023/04/18 09:05:18;;;;;;;;;;;10.30;46.20;;;;;;4064754;29;19911;-86
2023/04/18 09:07:33;;;;;;;;;;;10.40;47.20;;;;;;4079886;29;19945;-86
2023/04/18 09:09:49;;;;;;;;;;;10.40;47.50;;;;;;4094177;29;19980;-85
2023/04/18 09:12:14;;;;;;;;;;;10.50;46.40;;;;;;4079514;29;19920;-86
2023/04/18 09:14:22;;;;;;;;;;;10.50;46.30;;;;;;4080163;29;19911;-86
2023/04/18 09:16:52;;;;;;;;;;;10.50;44.90;;;;;;4064952;29;19913;-86
2023/04/18 09:22:10;;;;;;;;;;;10.50;46.10;;;;;;4080579;29;19917;-86
2023/04/18 09:24:31;;;;;;;;;;;10.80;46.20;;;;;;4079460;29;20025;-87
2023/04/18 09:27:13;;;;;;;;;;;;;;;;;;;;;
2023/04/18 09:29:50;;;;;;;;;;;;;;;;;;;;;
2023/04/18 09:32:33;;;;;;;;;;;10.90;44.00;;;;;;4095982;28;19950;-86
2023/04/18 09:40:35;;;;;;;;;;;11.10;44.10;;;;;;4071228;29;19954;-87
2023/04/18 09:51:07;;;;;;;;;;;11.40;45.10;;;;;;4124069;28;20591;-86
2023/04/18 09:53:34;;;;;;;;;;;11.50;46.50;;;;;;4116865;28;19914;-86
2023/04/18 09:55:56;;;;;;;;;;;11.50;46.00;;;;;;4109893;28;20396;-87
2023/04/18 10:01:54;;;;;;;;;;;11.20;46.20;;;;;;4035144;29;20386;-86
2023/04/18 10:04:38;;;;;;;;;;;11.10;46.40;;;;;;4048135;29;19943;-86
2023/04/18 10:07:15;;;;;;;;;;;11.20;47.50;;;;;;4062264;29;19915;-86
2023/04/18 10:09:46;;;;;;;;;;;11.20;45.70;;;;;;4059157;29;19946;-87
2023/04/18 10:11:53;;;;;;;;;;;11.20;45.10;;;;;;4067591;29;19915;-87
2023/04/18 10:14:02;;;;;;;;;;;11.20;41.10;;;;;;4063946;29;19915;-87
2023/04/18 10:16:27;;;;;;;;;;;11.20;41.00;;;;;;4079553;29;19902;-87
2023/04/18 10:18:51;;;;;;;;;;;11.20;41.50;;;;;;4080604;29;20392;-87
2023/04/18 10:21:18;;;;;;;;;;;11.30;42.60;;;;;;4078326;28;19907;-85
2023/04/18 10:23:47;;;;;;;;;;;11.30;44.30;;;;;;4081186;29;19911;-86
2023/04/18 10:26:50;;;;;;;;;;;11.30;43.10;;;;;;4082995;29;19910;-87
2023/04/18 10:32:12;;;;;;;;;;;11.30;44.80;;;;;;4041049;29;19924;-87
2023/04/18 10:34:40;;;;;;;;;;;11.30;44.20;;;;;;4062865;29;19907;-85
2023/04/18 10:37:28;;;;;;;;;;;11.30;42.30;;;;;;4060923;29;19967;-89
2023/04/18 10:43:07;;;;;;;;;;;;;;;;;;;;;
2023/04/18 10:48:33;;;;;;;;;;;11.50;43.10;;;;;;3986850;29;19916;-86
2023/04/18 10:51:17;;;;;;;;;;;11.30;41.80;;;;;;3999651;29;20006;-86
2023/04/18 10:54:17;;;;;;;;;;;;;;;;;;;;;
2023/04/18 10:56:56;;;;;;;;;;;11.50;43.20;;;;;;4016525;29;19912;-86
2023/04/18 10:59:37;;;;;;;;;;;11.50;41.60;;;;;;3998363;29;20476;-86
2023/04/18 11:02:28;;;;;;;;;;;11.50;42.30;;;;;;4000217;29;19908;-87
2023/04/18 11:05:05;;;;;;;;;;;11.50;43.10;;;;;;4001538;29;19905;-87
2023/04/18 11:07:39;;;;;;;;;;;11.60;43.10;;;;;;3993812;29;20406;-87
2023/04/18 11:10:08;;;;;;;;;;;11.60;42.70;;;;;;4030366;29;19951;-86
2023/04/18 11:12:37;;;;;;;;;;;;;;;;;;;;;
2023/04/18 11:15:13;;;;;;;;;;;11.70;43.60;;;;;;4016458;29;19915;-86
2023/04/18 11:23:01;;;;;;;;;;;11.70;44.00;;;;;;3988482;29;19911;-88
2023/04/18 11:25:45;;;;;;;;;;;;;;;;;;;;;
2023/04/18 11:28:27;;;;;;;;;;;11.50;44.50;;;;;;4066493;29;20366;-85
2023/04/18 11:34:32;;;;;;;;;;;11.40;44.90;;;;;;4033377;29;19928;-85
2023/04/18 11:37:00;;;;;;;;;;;11.50;44.90;;;;;;4045790;29;19920;-87
2023/04/18 11:39:37;;;;;;;;;;;11.50;44.50;;;;;;4019636;29;20524;-88
2023/04/18 11:41:53;;;;;;;;;;;11.30;43.60;;;;;;4019043;29;19916;-86
2023/04/18 11:44:15;;;;;;;;;;;11.30;43.50;;;;;;4018499;29;19934;-87
2023/04/18 11:46:18;;;;;;;;;;;11.20;43.20;;;;;;4034515;29;19923;-87
2023/04/18 11:48:31;;;;;;;;;;;11.20;44.00;;;;;;4016438;29;20007;-86
2023/04/18 11:51:01;;;;;;;;;;;11.20;43.20;;;;;;4034622;29;19936;-87
2023/04/18 11:53:32;;;;;;;;;;;11.20;43.00;;;;;;3993169;29;20325;-87
2023/04/18 11:58:33;;;;;;;;;;;11.20;42.50;;;;;;4021937;29;20473;-86
2023/04/18 12:01:42;;;;;;;;;;;11.20;43.30;;;;;;4019813;29;20294;-86
2023/04/18 12:04:23;;;;;;;;;;;11.30;44.40;;;;;;4012384;29;20279;-87
2023/04/18 12:07:16;;;;;;;;;;;11.20;44.70;;;;;;4031941;29;19999;-86
2023/04/18 12:10:00;;;;;;;;;;;11.20;44.40;;;;;;4034261;29;19915;-86
2023/04/18 12:12:05;;;;;;;;;;;11.20;44.00;;;;;;4067699;29;19923;-85
2023/04/18 12:14:35;;;;;;;;;;;11.20;43.30;;;;;;4066260;29;20081;-86
2023/04/18 12:17:17;;;;;;;;;;;11.20;43.90;;;;;;4035616;29;20470;-86
2023/04/18 12:19:44;;;;;;;;;;;11.20;43.60;;;;;;4003001;29;19923;-86
2023/04/18 12:22:01;;;;;;;;;;;11.20;43.60;;;;;;3988530;29;19909;-88
2023/04/18 12:24:33;;;;;;;;;;;11.10;43.00;;;;;;3989496;29;20552;-85
2023/04/18 12:26:54;;;;;;;;;;;11.20;44.00;;;;;;4004221;29;19919;-85
2023/04/18 12:28:59;;;;;;;;;;;11.20;43.90;;;;;;4002833;29;19955;-85
2023/04/18 12:31:08;;;;;;;;;;;11.20;44.80;;;;;;4030004;29;20378;-87
2023/04/18 12:33:32;;;;;;;;;;;11.30;43.50;;;;;;4021364;29;19944;-87
2023/04/18 12:36:22;;;;;;;;;;;11.30;44.10;;;;;;4033486;29;20301;-86
2023/04/18 12:38:40;;;;;;;;;;;11.30;43.90;;;;;;4044873;29;19967;-88
2023/04/18 12:44:09;;;;;;;;;;;11.40;44.70;;;;;;4035920;29;20441;-85
2023/04/18 12:46:36;;;;;;;;;;;11.20;43.90;;;;;;4035751;29;19912;-85
2023/04/18 12:49:14;;;;;;;;;;;11.40;44.70;;;;;;4034482;29;20026;-86
2023/04/18 12:51:45;;;;;;;;;;;11.40;44.10;;;;;;4033854;29;19928;-86
2023/04/18 12:53:53;;;;;;;;;;;11.50;44.20;;;;;;4018784;29;19922;-86
2023/04/18 12:56:02;;;;;;;;;;;11.50;44.90;;;;;;4040377;29;20652;-86
2023/04/18 12:58:17;;;;;;;;;;;11.50;43.60;;;;;;4099089;28;19914;-89
2023/04/18 13:00:48;;;;;;;;;;;11.60;43.50;;;;;;4102950;28;20321;-86
2023/04/18 13:03:15;;;;;;;;;;;11.60;43.60;;;;;;4099445;28;20415;-86
2023/04/18 13:08:22;;;;;;;;;;;;;;;;;;;;;
2023/04/18 13:13:50;;;;;;;;;;;11.90;42.70;;;;;;4081836;28;19910;-87
2023/04/18 13:16:22;;;;;;;;;;;11.90;43.10;;;;;;4093466;28;20376;-86
2023/04/18 13:18:46;;;;;;;;;;;11.90;43.20;;;;;;4080647;29;19911;-86
2023/04/18 13:24:28;;;;;;;;;;;11.90;43.00;;;;;;4093757;28;19910;-86
2023/04/18 13:27:09;;;;;;;;;;;11.90;43.80;;;;;;4091213;28;19914;-89
2023/04/18 13:29:40;;;;;;;;;;;11.90;43.10;;;;;;4079321;28;20069;-86
2023/04/18 13:32:22;;;;;;;;;;;11.90;43.80;;;;;;4088220;28;19918;-86
2023/04/18 13:35:01;;;;;;;;;;;12.00;43.80;;;;;;4080399;29;19998;-85
2023/04/18 13:40:37;;;;;;;;;;;12.10;44.30;;;;;;4087443;28;20356;-86
2023/04/18 13:43:24;;;;;;;;;;;12.00;43.30;;;;;;4096921;28;19910;-86
2023/04/18 13:45:57;;;;;;;;;;;12.10;44.60;;;;;;4113498;28;19914;-85
2023/04/18 13:48:00;;;;;;;;;;;12.10;44.50;;;;;;4101880;28;20053;-87
2023/04/18 13:50:14;;;;;;;;;;;12.10;45.50;;;;;;4118818;28;19921;-86
2023/04/18 13:52:23;;;;;;;;;;;12.10;44.50;;;;;;4101940;28;19917;-86
2023/04/18 13:54:57;;;;;;;;;;;12.10;43.20;;;;;;4110369;28;20009;-87
2023/04/18 13:57:22;;;;;;;;;;;;;;;;;;;;;
2023/04/18 13:59:52;;;;;;;;;;;12.10;43.10;;;;;;4119006;28;19922;-87
2023/04/18 14:02:02;;;;;;;;;;;12.10;43.00;;;;;;4106991;28;20632;-85
2023/04/18 14:04:04;;;;;;;;;;;12.00;43.20;;;;;;4119963;28;19917;-87
2023/04/18 14:06:45;;;;;;;;;;;;;;;;;;;;;
2023/04/18 14:09:19;;;;;;;;;;;12.10;42.40;;;;;;4115696;28;19941;-86
2023/04/18 14:14:49;;;;;;;;;;;11.90;42.90;;;;;;4115999;28;19934;-87
2023/04/18 14:17:25;;;;;;;;;;;11.90;44.70;;;;;;4118218;28;19906;-85
2023/04/18 14:20:01;;;;;;;;;;;;;;;;;;;;;
2023/04/18 14:22:52;;;;;;;;;;;11.90;43.70;;;;;;4114781;28;19910;-86
2023/04/18 14:25:19;;;;;;;;;;;12.00;44.50;;;;;;4105433;28;19921;-86
2023/04/18 14:27:49;;;;;;;;;;;12.00;44.20;;;;;;4099805;28;19918;-86
2023/04/18 14:30:33;;;;;;;;;;;12.00;44.40;;;;;;4104623;28;19985;-85
2023/04/18 14:33:03;;;;;;;;;;;11.90;44.50;;;;;;4100770;28;19945;-86
2023/04/18 14:35:36;;;;;;;;;;;12.00;45.80;;;;;;4098000;28;20001;-87
2023/04/18 14:37:37;;;;;;;;;;;12.00;45.20;;;;;;4081447;29;19922;-86
2023/04/18 14:40:01;;;;;;;;;;;12.00;45.30;;;;;;4094646;28;20287;-85
2023/04/18 14:45:11;;;;;;;;;;;12.10;45.00;;;;;;4098906;28;20326;-87
2023/04/18 14:47:54;;;;;;;;;;;12.10;46.10;;;;;;4099323;28;20440;-85
2023/04/18 14:50:15;;;;;;;;;;;12.00;44.90;;;;;;4099561;28;20266;-85
2023/04/18 14:53:16;;;;;;;;;;;12.20;45.40;;;;;;4115394;28;19920;-89
2023/04/18 14:58:34;;;;;;;;;;;12.10;44.30;;;;;;4064001;29;19953;-86
2023/04/18 15:01:22;;;;;;;;;;;12.20;45.00;;;;;;4063678;29;19911;-86
2023/04/18 15:04:05;;;;;;;;;;;12.00;45.30;;;;;;4065147;29;21249;-88
2023/04/18 15:06:42;;;;;;;;;;;11.90;46.50;;;;;;4053686;29;19982;-87
2023/04/18 15:08:55;;;;;;;;;;;12.00;45.50;;;;;;4065117;29;19922;-86
2023/04/18 15:13:29;;;;;;;;;;;12.00;46.10;;;;;;4049191;29;20054;-87
2023/04/18 15:15:39;;;;;;;;;;;12.10;46.10;;;;;;4050271;29;20813;-86
2023/04/18 15:17:43;;;;;;;;;;;12.10;46.30;;;;;;4076433;29;19911;-90
2023/04/18 15:19:59;;;;;;;;;;;12.10;45.90;;;;;;4070957;29;20049;-89
2023/04/18 15:24:59;;;;;;;;;;;12.10;45.50;;;;;;4067790;29;20085;-88
2023/04/18 15:33:47;;;;;;;;;;;12.00;46.20;;;;;;4024019;29;19995;-88
2023/04/18 15:36:31;;;;;;;;;;;11.90;46.60;;;;;;4023857;29;19922;-87
2023/04/18 15:38:55;;;;;;;;;;;11.90;46.50;;;;;;4019188;29;19911;-86
2023/04/18 15:41:15;;;;;;;;;;;11.90;47.00;;;;;;4036097;29;19908;-85
2023/04/18 15:43:57;;;;;;;;;;;11.90;47.10;;;;;;4071946;29;19911;-87
2023/04/18 15:46:35;;;;;;;;;;;12.00;47.00;;;;;;4080091;29;19907;-85
2023/04/18 15:48:59;;;;;;;;;;;12.00;47.80;;;;;;4071572;29;20472;-85
2023/04/18 15:52:12;;;;;;;;;;;11.90;47.40;;;;;;4063615;29;19958;-87
2023/04/18 15:54:39;;;;;;;;;;;11.90;47.10;;;;;;3990078;29;19952;-86
2023/04/18 15:57:28;;;;;;;;;;;11.90;47.40;;;;;;4066644;29;19913;-87
2023/04/18 15:59:55;;;;;;;;;;;11.90;47.00;;;;;;4063730;29;19930;-87
2023/04/18 16:02:35;;;;;;;;;;;11.80;47.20;;;;;;4067686;29;19949;-85
2023/04/18 16:04:36;;;;;;;;;;;11.90;47.00;;;;;;4081285;29;19911;-86
2023/04/18 16:07:08;;;;;;;;;;;11.90;48.00;;;;;;4079545;29;19953;-85
2023/04/18 16:11:44;;;;;;;;;;;11.80;48.10;;;;;;4097353;28;19993;-85
2023/04/18 16:13:54;;;;;;;;;;;11.90;47.70;;;;;;4097819;29;19929;-86
2023/04/18 16:16:25;;;;;;;;;;;11.80;47.30;;;;;;4084764;28;20235;-85
2023/04/18 16:19:02;;;;;;;;;;;11.90;47.80;;;;;;4103581;28;19914;-86
2023/04/18 16:21:19;;;;;;;;;;;11.80;47.70;;;;;;4095557;28;20021;-86
2023/04/18 16:23:55;;;;;;;;;;;11.90;48.20;;;;;;4097093;28;19918;-86
2023/04/18 16:26:23;;;;;;;;;;;12.00;48.10;;;;;;4077084;29;19907;-86
2023/04/18 16:29:06;;;;;;;;;;;12.00;48.00;;;;;;4089456;28;19914;-86
2023/04/18 16:31:45;;;;;;;;;;;11.90;47.80;;;;;;4113426;28;19953;-86
2023/04/18 16:34:15;;;;;;;;;;;11.90;47.80;;;;;;4079537;29;19966;-86
2023/04/18 16:36:48;;;;;;;;;;;11.90;48.30;;;;;;4112508;28;19972;-88
2023/04/18 16:39:18;;;;;;;;;;;11.90;48.70;;;;;;4092201;28;19919;-87
2023/04/18 16:42:05;;;;;;;;;;;11.90;48.80;;;;;;4115561;28;19906;-86
2023/04/18 16:45:02;;;;;;;;;;;;;;;;;;;;;
2023/04/18 16:47:32;;;;;;;;;;;11.90;48.90;;;;;;4112757;28;19949;-85
2023/04/18 16:49:56;;;;;;;;;;;11.90;49.40;;;;;;4111019;28;19917;-87
2023/04/18 16:55:04;;;;;;;;;;;11.80;49.50;;;;;;4077863;29;19915;-85
2023/04/18 16:57:57;;;;;;;;;;;11.90;50.00;;;;;;4063262;29;19955;-86
2023/04/18 17:00:31;;;;;;;;;;;;;;;;;;;;;
2023/04/18 17:02:34;;;;;;;;;;;11.80;49.60;;;;;;4018553;29;19990;-85
2023/04/18 17:07:19;;;;;;;;;;;11.80;49.50;;;;;;4017702;29;19969;-85
2023/04/18 17:09:25;;;;;;;;;;;11.90;49.40;;;;;;4015754;29;19911;-86
2023/04/18 17:18:10;;;;;;;;;;;11.80;49.80;;;;;;3994245;29;20051;-85
2023/04/18 17:20:49;;;;;;;;;;;11.80;50.70;;;;;;3984978;29;20343;-88
2023/04/18 17:26:27;;;;;;;;;;;11.70;50.30;;;;;;3983957;29;20499;-87
2023/04/18 17:29:01;;;;;;;;;;;11.70;50.40;;;;;;3976995;29;19917;-85
2023/04/18 17:31:34;;;;;;;;;;;11.70;50.30;;;;;;3988290;29;19921;-88
2023/04/18 17:34:48;;;;;;;;;;;11.70;50.70;;;;;;3999720;29;19909;-85
2023/04/18 17:40:25;;;;;;;;;;;11.50;50.60;;;;;;4053419;29;19916;-85
2023/04/18 17:42:52;;;;;;;;;;;11.50;50.80;;;;;;4053385;29;19916;-85
2023/04/18 17:45:22;;;;;;;;;;;11.50;50.90;;;;;;4034919;29;19911;-86
2023/04/18 17:47:37;;;;;;;;;;;11.50;50.80;;;;;;4027530;29;20481;-87
2023/04/18 17:49:44;;;;;;;;;;;11.60;50.90;;;;;;4039185;29;20144;-85
2023/04/18 17:52:09;;;;;;;;;;;11.60;50.80;;;;;;4099396;28;19913;-86
2023/04/18 17:54:16;;;;;;;;;;;11.50;50.90;;;;;;4099489;28;19918;-85
2023/04/18 17:56:34;;;;;;;;;;;11.50;50.90;;;;;;4098851;28;19953;-86
2023/04/18 17:59:04;;;;;;;;;;;11.50;50.80;;;;;;4104406;28;19913;-87
2023/04/18 18:01:29;;;;;;;;;;;11.50;50.80;;;;;;4104375;28;19918;-85
2023/04/18 18:03:45;;;;;;;;;;;11.40;50.70;;;;;;4091865;28;19911;-86